Sacramento, California
Traffic Map
Current Weather Conditions
Sacramento, California
Clear
Clear
11°
Feels Like: 11°
Wind Chill: 11° Ceiling: Unl
Heat Index: 11° Visibility: 10mi
Dew Point: Wind: 0mph
Humidity: 74% Direction: ° ()
Pressure: 30.03in Gusts: 0mph
Raw Report DataKSAC 220753Z AUTO 00000KT 10SM CLR 11/07 A3003 RMK AO2 SLP168 T01110067 402330083
Traffic Incident Summary
Active as of:
Severity:
Category:
InformationThere was an issue retrieving the traffic information for this location. Please try a different location or try again shortly.
Advertisements
Track Severe Weather on mobile